Djerba Mellita, Tunisia
Current Conditions -  °F | °C
As of 1:00 PM on Friday 21 Nov 2014 (Local Time) from DTTJ Reporting Station
Clear Clear  
Wind Chill: 79°   Ceiling: Unl
Heat Index: 79°   Visibility: 6mi
Dew Point: 46°   Wind: 7mph
Humidity: 32%   Direction: 210°SSW
Pressure: 30.15"   Gusts: NA
Location:  33.87°N, 10.77°E
Report Text: DTTJ 211200Z 21006KT CAVOK 26/08 Q1021 NOSIG
Loading
Personal Weather Stations






























Interactive Weather Map New forecast layout! Learn more

10-Day Weather Forecast

Advertisements
Track Severe Weather on mobile